createdAt,value
2023-01-13T00:00:01.614Z,993.7554385700972
2023-01-13T00:15:02.245Z,994.1376974229576
2023-01-13T00:30:01.898Z,993.9925514569517
2023-01-13T00:45:01.532Z,994.0585097052109
2023-01-13T01:00:02.165Z,993.9902491903864
2023-01-13T01:15:01.860Z,994.1231392716305
2023-01-13T01:30:01.640Z,994.2737272944738
2023-01-13T01:45:02.270Z,994.2662592575358
2023-01-13T02:00:01.933Z,994.2548181967588
2023-01-13T02:15:01.605Z,994.4419506286282
2023-01-13T02:30:02.263Z,994.7791591056304
2023-01-13T02:45:01.946Z,994.7972895015408
2023-01-13T03:00:01.605Z,994.6255270051473
2023-01-13T03:15:02.243Z,994.5846758025433
2023-01-13T03:30:01.953Z,994.392958143258
2023-01-13T03:45:01.647Z,994.5443517387414
2023-01-13T04:00:02.295Z,994.5623969009298
2023-01-13T04:15:01.980Z,994.4361410113934
2023-01-13T04:30:01.640Z,994.2258618785364
2023-01-13T04:45:02.294Z,994.2366696308368
2023-01-13T05:00:01.912Z,994.2069978966852
2023-01-13T05:15:01.561Z,993.8384319335065
2023-01-13T05:30:02.345Z,993.9030735717611
2023-01-13T05:45:02.030Z,993.7815997101122
2023-01-13T06:00:01.704Z,993.7630207820836
2023-01-13T06:15:01.491Z,993.7102817507078
2023-01-13T06:30:02.375Z,993.9590687871963
2023-01-13T06:45:02.043Z,994.0283195509363
2023-01-13T07:00:01.936Z,994.2407991281742
2023-01-13T07:15:01.667Z,994.2541570988847
2023-01-13T07:30:02.336Z,994.3595618916157
2023-01-13T07:45:02.008Z,994.4089096465527
2023-01-13T08:00:01.729Z,994.5963740910607
2023-01-13T08:15:02.385Z,994.6022077314852
2023-01-13T08:30:02.052Z,994.6249264691779
2023-01-13T08:45:01.734Z,994.800644416969
2023-01-13T09:00:02.407Z,994.7309777939964
2023-01-13T09:15:02.091Z,994.7878432348099
2023-01-13T09:30:01.782Z,994.8474643047156
2023-01-13T09:45:02.486Z,995.2001684028246
2023-01-13T10:00:02.188Z,995.0945002801922
2023-01-13T10:15:01.851Z,995.1624366590509
2023-01-13T10:30:01.578Z,995.0183196244302
2023-01-13T10:45:02.267Z,995.3393766389447
2023-01-13T11:00:01.924Z,995.2795949217225
2023-01-13T11:15:01.671Z,995.3950797645987
2023-01-13T11:30:02.352Z,995.4618093977724
2023-01-13T11:45:02.062Z,995.5598668926203
2023-01-13T12:00:01.737Z,995.7288782581178
2023-01-13T12:15:01.416Z,995.7298153207104
2023-01-13T12:30:02.113Z,995.8498605891211
2023-01-13T12:45:01.793Z,995.6815244945742
2023-01-13T13:00:01.435Z,996.0123634510777
2023-01-13T13:15:03.576Z,996.1512189353259
2023-01-13T13:30:01.775Z,996.1339660483075
2023-01-13T13:45:01.467Z,996.4153079895389
2023-01-13T14:00:02.086Z,996.7334258180418
2023-01-13T14:15:01.825Z,996.9871473348311
2023-01-13T14:30:01.666Z,997.2947084652742
2023-01-13T14:45:02.288Z,997.4634424957164
2023-01-13T15:00:01.924Z,997.5947531324929
2023-01-13T15:15:01.581Z,997.7154453343536
2023-01-13T15:30:02.239Z,998.0919409874393
2023-01-13T15:45:01.857Z,998.3670847569718
2023-01-13T16:00:01.523Z,998.5474134875413
2023-01-13T16:15:02.153Z,998.618852143631
2023-01-13T16:30:01.964Z,998.8038690578256
2023-01-13T16:45:01.706Z,998.992296472341
2023-01-13T17:00:02.334Z,999.4021464686
2023-01-13T17:15:02.010Z,999.5689138892043
2023-01-13T17:30:01.719Z,999.7685382026045
2023-01-13T17:45:02.367Z,1000.0544151498605
2023-01-13T18:00:01.998Z,1000.1464745849127
2023-01-13T18:15:01.718Z,1000.2257615684124
2023-01-13T18:30:02.408Z,1000.5620331914255
2023-01-13T18:45:02.046Z,1000.695841017248
2023-01-13T19:00:01.689Z,1000.9688399739604
2023-01-13T19:15:02.326Z,1001.1067039111111
2023-01-13T19:30:03.511Z,1001.4704566387213
2023-01-13T19:45:01.856Z,1001.7054277816143
2023-01-13T20:00:01.487Z,1002.0460467026496
2023-01-13T20:15:02.156Z,1002.4369229953752
2023-01-13T20:30:01.808Z,1002.5467357555575
2023-01-13T20:45:01.528Z,1002.7823276376965
2023-01-13T21:00:02.229Z,1003.1036046319806
2023-01-13T21:15:01.892Z,1003.0892454486212
2023-01-13T21:30:01.552Z,1003.3392546211579
2023-01-13T21:45:02.191Z,1003.4360003142469
2023-01-13T22:00:01.828Z,1003.672351802779
2023-01-13T22:15:01.651Z,1003.7740687119431
2023-01-13T22:30:02.516Z,1004.1317332172548
2023-01-13T22:45:02.171Z,1004.2672673033853
2023-01-13T23:00:01.789Z,1004.4620131413224
2023-01-13T23:15:02.469Z,1004.5309268992007
2023-01-13T23:30:02.195Z,1004.6684070159813
2023-01-13T23:45:01.896Z,1004.7045088958745
